Time;durP1;ratioP1;P1;durP2;ratioP2;P2;SDS_P1;SDS_P2;PMS_P1;PMS_P2;Temp;Humidity;BMP_temperature;BMP_pressure;BME280_temperature;BME280_humidity;BME280_pressure;Samples;Min_cycle;Max_cycle;Signal;HPM_P1;HPM_P2
2022/04/27 00:02:25;;;;;;;4.80;3.05;;;;;;;14.01;59.05;99705.22;4482882;32;34864;-71
2022/04/27 00:04:53;;;;;;;4.57;2.65;;;;;;;14.17;58.27;99714.25;4483761;32;34854;-71
2022/04/27 00:07:20;;;;;;;5.15;3.10;;;;;;;14.26;57.94;99706.34;4483975;32;34044;-66
2022/04/27 00:09:48;;;;;;;4.95;3.25;;;;;;;14.57;56.45;99709.84;4484258;32;33940;-69
2022/04/27 00:12:15;;;;;;;5.80;3.78;;;;;;;15.05;54.71;99703.97;4484451;32;34561;-69
2022/04/27 00:14:43;;;;;;;6.03;3.40;;;;;;;15.04;53.15;99716.00;4484012;32;34185;-66
2022/04/27 00:17:10;;;;;;;4.18;2.72;;;;;;;14.27;55.64;99718.87;4483806;32;34731;-70
2022/04/27 00:19:38;;;;;;;4.95;3.15;;;;;;;14.45;55.72;99731.12;4483616;32;34051;-69
2022/04/27 00:22:05;;;;;;;5.20;3.12;;;;;;;14.68;55.39;99721.56;4484251;32;34109;-66
2022/04/27 00:24:33;;;;;;;4.65;3.05;;;;;;;14.96;54.39;99717.38;4484134;32;33990;-71
2022/04/27 00:27:02;;;;;;;5.78;3.10;;;;;;;15.17;54.62;99716.22;4483722;32;35006;-68
2022/04/27 00:29:29;;;;;;;4.05;3.03;;;;;;;15.03;54.59;99726.13;4483898;32;33683;-66
2022/04/27 00:31:56;;;;;;;5.20;3.28;;;;;;;15.18;53.82;99723.34;4484132;32;34746;-71
2022/04/27 00:34:24;;;;;;;6.10;3.10;;;;;;;15.23;52.72;99714.28;4483225;32;34249;-71
2022/04/27 00:36:52;;;;;;;4.28;2.62;;;;;;;15.00;53.12;99717.66;4483489;32;33957;-65
2022/04/27 00:39:19;;;;;;;5.28;3.25;;;;;;;15.32;52.89;99720.00;4485185;32;34483;-65
2022/04/27 00:41:59;;;;;;;5.32;3.37;;;;;;;15.01;52.64;99722.00;4485616;32;33975;-70
2022/04/27 00:44:27;;;;;;;5.90;3.28;;;;;;;14.96;52.56;99728.31;4485819;32;34244;-67
2022/04/27 00:46:56;;;;;;;5.65;2.90;;;;;;;14.72;53.18;99725.38;4485623;32;34598;-66
2022/04/27 00:49:24;;;;;;;5.37;3.42;;;;;;;14.60;54.03;99733.06;4485628;32;34418;-66
2022/04/27 00:51:52;;;;;;;5.55;3.28;;;;;;;14.18;55.68;99734.97;4485717;32;33739;-66
2022/04/27 00:54:22;;;;;;;7.15;3.60;;;;;;;13.76;56.92;99736.03;4484321;32;33836;-68
2022/04/27 00:56:50;;;;;;;6.15;3.97;;;;;;;14.19;55.88;99741.25;4484007;32;34934;-66
2022/04/27 00:59:18;;;;;;;7.07;4.03;;;;;;;14.21;56.53;99744.50;4485237;32;33914;-68
2022/04/27 01:01:45;;;;;;;7.00;3.90;;;;;;;14.23;56.55;99747.78;4485667;32;33914;-71
2022/04/27 01:04:13;;;;;;;6.97;4.15;;;;;;;13.75;58.76;99742.56;4485389;31;34997;-66
2022/04/27 01:06:41;;;;;;;7.80;4.53;;;;;;;14.05;57.72;99738.25;4485456;32;33930;-67
2022/04/27 01:09:09;;;;;;;8.65;4.37;;;;;;;13.96;58.05;99746.16;4485725;32;33452;-66
2022/04/27 01:11:37;;;;;;;8.60;4.60;;;;;;;14.44;56.98;99740.41;4485544;32;33944;-67
2022/04/27 01:14:04;;;;;;;7.57;4.43;;;;;;;14.35;57.58;99735.50;4485433;32;34071;-71
2022/04/27 01:16:32;;;;;;;8.57;4.78;;;;;;;14.70;56.35;99735.75;4485247;32;34662;-67
2022/04/27 01:19:00;;;;;;;7.12;4.60;;;;;;;14.12;58.54;99739.63;4484018;32;34697;-67
2022/04/27 01:21:33;;;;;;;6.15;4.07;;;;;;;14.34;57.66;99741.22;4485524;32;34856;-71
2022/04/27 01:24:02;;;;;;;6.85;4.10;;;;;;;14.38;57.62;99739.59;4485763;32;33940;-68
2022/04/27 01:26:29;;;;;;;7.15;4.30;;;;;;;14.68;57.17;99735.22;4484181;32;34034;-70
2022/04/27 01:28:58;;;;;;;7.12;4.55;;;;;;;14.59;57.65;99745.88;4485000;32;33029;-68
2022/04/27 01:31:27;;;;;;;6.85;4.47;;;;;;;14.40;59.32;99747.53;4485771;32;33621;-71
2022/04/27 01:33:55;;;;;;;6.95;4.32;;;;;;;14.54;59.51;99751.34;4485018;32;34964;-69
2022/04/27 01:36:24;;;;;;;7.15;4.32;;;;;;;14.06;61.71;99758.97;4485325;32;34661;-70
2022/04/27 01:38:52;;;;;;;8.80;5.12;;;;;;;13.89;62.63;99768.25;4485511;32;33514;-66
2022/04/27 01:41:19;;;;;;;8.60;4.65;;;;;;;14.06;61.72;99770.72;4485398;32;33681;-70
2022/04/27 01:43:48;;;;;;;8.43;5.10;;;;;;;13.95;62.07;99779.97;4484971;32;34158;-68
2022/04/27 01:46:16;;;;;;;8.95;4.72;;;;;;;13.96;62.42;99787.06;4485106;32;33984;-68
2022/04/27 01:48:43;;;;;;;7.60;4.68;;;;;;;13.59;63.14;99793.53;4485595;32;34007;-71
2022/04/27 01:51:11;;;;;;;8.77;4.90;;;;;;;13.65;63.95;99789.72;4483174;32;33918;-67
2022/04/27 01:56:25;;;;;;;8.32;4.75;;;;;;;13.56;65.11;99791.31;4484345;32;33901;-67
2022/04/27 01:58:53;;;;;;;7.60;4.70;;;;;;;13.71;64.93;99793.28;4485019;32;33527;-66
2022/04/27 02:01:21;;;;;;;8.27;4.80;;;;;;;13.79;65.31;99791.94;4485663;32;33569;-65
2022/04/27 02:03:51;;;;;;;7.47;4.75;;;;;;;13.22;67.74;99786.25;4485291;31;34062;-65
2022/04/27 02:06:20;;;;;;;8.98;5.40;;;;;;;13.36;67.98;99786.63;4485399;32;34690;-65
2022/04/27 02:08:47;;;;;;;7.47;4.93;;;;;;;13.13;68.85;99780.50;4485269;32;33577;-64
2022/04/27 02:11:16;;;;;;;7.32;4.80;;;;;;;13.12;68.61;99775.31;4485422;32;35046;-70
2022/04/27 02:13:44;;;;;;;8.82;5.35;;;;;;;13.07;68.94;99778.81;4484439;32;34182;-65
2022/04/27 02:16:12;;;;;;;7.90;5.57;;;;;;;13.87;66.58;99775.88;4484940;32;34081;-70
2022/04/27 02:18:40;;;;;;;7.80;4.93;;;;;;;13.57;67.67;99768.44;4485361;32;33420;-66
2022/04/27 02:21:07;;;;;;;7.93;5.00;;;;;;;12.84;69.62;99754.72;4484830;32;33990;-68
2022/04/27 02:23:34;;;;;;;8.85;4.72;;;;;;;13.38;68.02;99750.94;4485333;32;35407;-67
2022/04/27 02:26:03;;;;;;;10.35;5.35;;;;;;;13.34;68.50;99764.25;4484892;32;34589;-68
2022/04/27 02:28:30;;;;;;;7.68;5.00;;;;;;;13.64;67.87;99749.09;4484151;32;34337;-66
2022/04/27 02:30:58;;;;;;;8.23;4.90;;;;;;;13.37;69.03;99749.28;4485017;32;34786;-66
2022/04/27 02:33:25;;;;;;;9.45;5.07;;;;;;;13.58;68.49;99758.34;4484903;32;34305;-65
2022/04/27 02:35:53;;;;;;;7.95;4.80;;;;;;;13.36;69.26;99758.56;4484477;32;33924;-66
2022/04/27 02:38:21;;;;;;;8.38;5.37;;;;;;;13.65;68.45;99754.28;4484992;32;33122;-71
2022/04/27 02:40:49;;;;;;;8.63;4.95;;;;;;;13.71;68.27;99749.66;4485245;32;33904;-65
2022/04/27 02:43:16;;;;;;;7.35;4.53;;;;;;;13.44;69.43;99745.22;4484543;32;35035;-71
2022/04/27 02:45:44;;;;;;;9.38;5.50;;;;;;;13.42;69.79;99739.22;4485060;32;33729;-71
2022/04/27 02:48:12;;;;;;;8.65;5.30;;;;;;;13.59;69.34;99746.38;4484688;32;33566;-72
2022/04/27 02:53:26;;;;;;;7.93;5.20;;;;;;;13.60;69.25;99748.81;4484820;32;34805;-66
2022/04/27 02:55:54;;;;;;;9.18;5.78;;;;;;;13.16;70.83;99746.44;4483416;32;34048;-68
2022/04/27 02:58:22;;;;;;;7.05;4.80;;;;;;;13.63;69.42;99737.38;4485011;32;33421;-66
2022/04/27 03:00:50;;;;;;;8.48;4.80;;;;;;;13.51;69.68;99734.87;4484841;32;33632;-72
2022/04/27 03:03:17;;;;;;;7.22;4.82;;;;;;;13.66;69.31;99736.00;4484673;32;34306;-70
2022/04/27 03:05:46;;;;;;;8.88;5.30;;;;;;;13.56;69.65;99736.78;4484767;32;33932;-72
2022/04/27 03:08:14;;;;;;;8.48;4.82;;;;;;;13.57;69.61;99741.19;4484542;32;33393;-66
2022/04/27 03:10:41;;;;;;;9.30;5.32;;;;;;;13.40;70.10;99746.03;4484848;32;33803;-67
2022/04/27 03:13:09;;;;;;;9.93;5.68;;;;;;;13.84;68.49;99746.41;4484446;32;34109;-69
2022/04/27 03:15:37;;;;;;;11.32;5.53;;;;;;;14.20;67.16;99754.63;4485073;32;33724;-70
2022/04/27 03:18:22;;;;;;;8.27;5.43;;;;;;;14.00;67.55;99758.16;4483825;32;33587;-66
2022/04/27 03:20:50;;;;;;;7.68;4.87;;;;;;;13.62;68.70;99746.62;4484789;32;33675;-71
2022/04/27 03:23:19;;;;;;;7.62;4.68;;;;;;;13.43;69.07;99749.03;4484613;32;33728;-71
2022/04/27 03:25:47;;;;;;;8.32;4.85;;;;;;;13.04;70.76;99759.47;4483848;32;34729;-69
2022/04/27 03:28:16;;;;;;;7.45;4.80;;;;;;;13.09;70.78;99760.31;4482778;32;34042;-64
2022/04/27 03:30:43;;;;;;;8.75;5.43;;;;;;;13.08;70.86;99752.41;4484177;32;34689;-68
2022/04/27 03:33:11;;;;;;;8.18;5.00;;;;;;;13.13;70.83;99760.59;4484687;32;34009;-71
2022/04/27 03:35:39;;;;;;;7.12;4.68;;;;;;;13.31;70.06;99759.34;4484666;32;33691;-65
2022/04/27 03:38:08;;;;;;;7.60;4.97;;;;;;;13.38;69.82;99762.63;4484198;32;33414;-66
2022/04/27 03:40:37;;;;;;;7.60;5.05;;;;;;;13.13;70.75;99771.47;4484827;32;33982;-65
2022/04/27 03:43:05;;;;;;;7.32;4.78;;;;;;;12.91;71.44;99768.91;4484288;32;34220;-66
2022/04/27 03:45:32;;;;;;;8.65;5.37;;;;;;;13.38;69.67;99765.37;4482856;32;33844;-66
2022/04/27 03:48:02;;;;;;;6.87;4.72;;;;;;;13.57;69.20;99768.44;4484306;32;34329;-70
2022/04/27 03:50:29;;;;;;;8.40;4.87;;;;;;;13.36;69.94;99774.91;4484684;32;33727;-66
2022/04/27 03:52:58;;;;;;;7.37;5.18;;;;;;;13.07;71.26;99770.66;4484655;32;33490;-66
2022/04/27 03:55:28;;;;;;;7.78;5.28;;;;;;;13.26;70.48;99772.91;4484524;32;34760;-64
2022/04/27 03:57:57;;;;;;;10.00;5.15;;;;;;;13.26;70.59;99776.47;4482927;32;34256;-65
2022/04/27 04:00:25;;;;;;;7.12;4.60;;;;;;;13.09;71.28;99773.13;4484418;32;33906;-67
2022/04/27 04:02:53;;;;;;;9.38;5.60;;;;;;;13.08;71.44;99779.66;4484374;31;33855;-65
2022/04/27 04:05:21;;;;;;;8.98;5.57;;;;;;;12.47;73.98;99783.59;4484523;32;34071;-72
2022/04/27 04:07:48;;;;;;;7.95;5.22;;;;;;;12.69;73.59;99780.75;4482840;32;34208;-66
2022/04/27 04:10:16;;;;;;;8.73;5.60;;;;;;;12.77;72.77;99784.91;4484584;32;33742;-71
2022/04/27 04:12:45;;;;;;;7.40;5.22;;;;;;;12.89;72.70;99784.69;4483549;32;35038;-65
2022/04/27 04:15:13;;;;;;;8.98;5.70;;;;;;;13.54;69.71;99796.22;4484014;32;33987;-69
2022/04/27 04:17:45;;;;;;;8.68;5.03;;;;;;;12.81;72.15;99798.84;4484217;32;34771;-67
2022/04/27 04:20:19;;;;;;;9.70;5.55;;;;;;;13.23;70.63;99804.22;4479412;32;34583;-64
2022/04/27 04:22:47;;;;;;;9.32;5.07;;;;;;;13.18;70.89;99808.84;4476372;32;34745;-64
2022/04/27 04:30:47;;;;;;;9.65;5.53;;;;;;;13.09;71.70;99814.78;4475492;32;33553;-71
2022/04/27 04:33:16;;;;;;;10.38;5.50;;;;;;;13.20;71.28;99818.41;4483742;32;34235;-66
2022/04/27 04:35:43;;;;;;;7.28;4.70;;;;;;;13.30;70.95;99826.66;4483283;32;34029;-65
2022/04/27 04:38:12;;;;;;;7.93;4.87;;;;;;;13.55;69.74;99827.84;4484549;32;34600;-71
2022/04/27 04:40:40;;;;;;;7.80;5.07;;;;;;;13.58;69.31;99824.56;4484813;32;34647;-73
2022/04/27 04:43:07;;;;;;;8.68;5.05;;;;;;;12.70;73.47;99830.63;4483522;32;35067;-71
2022/04/27 04:45:36;;;;;;;8.85;5.45;;;;;;;12.97;72.77;99826.97;4484589;32;34775;-72
2022/04/27 04:48:04;;;;;;;7.40;4.95;;;;;;;13.09;72.36;99827.59;4484948;32;34433;-73
2022/04/27 04:50:33;;;;;;;9.45;5.78;;;;;;;13.06;72.70;99820.75;4484629;32;33604;-72
2022/04/27 04:53:00;;;;;;;8.00;5.47;;;;;;;12.81;73.76;99826.06;4484436;32;33996;-71
2022/04/27 04:55:29;;;;;;;8.93;5.72;;;;;;;12.37;74.63;99829.78;4484705;32;33852;-67
2022/04/27 04:57:59;;;;;;;8.88;5.18;;;;;;;12.61;74.33;99823.97;4484490;32;33465;-66
2022/04/27 05:00:27;;;;;;;7.85;4.97;;;;;;;13.18;72.41;99827.94;4484031;32;33741;-68
2022/04/27 05:02:55;;;;;;;8.55;5.10;;;;;;;13.43;71.76;99828.06;4484285;32;33987;-69
2022/04/27 05:05:23;;;;;;;8.98;5.12;;;;;;;13.76;70.69;99834.22;4482727;32;34687;-64
2022/04/27 05:07:51;;;;;;;10.02;5.68;;;;;;;12.97;73.54;99826.97;4484628;32;33544;-65
2022/04/27 05:10:19;;;;;;;8.80;5.30;;;;;;;13.59;71.67;99839.06;4484833;32;34914;-65
2022/04/27 05:12:47;;;;;;;8.30;5.47;;;;;;;13.97;70.18;99842.44;4484363;32;34232;-64
2022/04/27 05:15:15;;;;;;;8.48;5.47;;;;;;;13.92;70.61;99854.16;4484805;32;34613;-65
2022/04/27 05:17:43;;;;;;;7.30;5.32;;;;;;;14.16;70.00;99858.03;4484593;32;33372;-69
2022/04/27 05:20:11;;;;;;;8.57;5.03;;;;;;;14.15;69.92;99861.84;4484386;32;34773;-73
2022/04/27 05:22:39;;;;;;;8.93;5.70;;;;;;;14.20;67.48;99854.78;4484673;32;34048;-65
2022/04/27 05:25:08;;;;;;;8.77;5.80;;;;;;;14.21;68.48;99859.13;4474640;32;34202;-67
2022/04/27 05:27:39;;;;;;;8.63;5.07;;;;;;;13.29;71.77;99846.81;4468240;32;33361;-69
2022/04/27 05:33:03;;;;;;;6.18;4.30;;;;;;;14.18;70.72;99862.41;4469682;32;34159;-69
2022/04/27 05:35:41;;;;;;;8.93;4.62;;;;;;;15.07;67.15;99857.53;4469379;32;34073;-66
2022/04/27 05:38:09;;;;;;;7.87;4.43;;;;;;;15.02;67.30;99865.75;4469475;32;33512;-65
2022/04/27 05:40:43;;;;;;;7.20;4.72;;;;;;;15.48;63.18;99860.97;4469701;32;34274;-66
2022/04/27 05:43:10;;;;;;;8.90;4.37;;;;;;;15.68;61.83;99860.09;4468981;32;33917;-66
2022/04/27 05:45:39;;;;;;;7.25;4.40;;;;;;;15.62;63.35;99869.41;4469505;32;33720;-65
2022/04/27 05:48:07;;;;;;;7.53;4.57;;;;;;;15.63;63.14;99867.50;4469374;32;34260;-69
2022/04/27 05:50:36;;;;;;;6.87;3.90;;;;;;;15.67;63.36;99869.38;4469481;32;34701;-67
2022/04/27 05:53:04;;;;;;;7.18;4.00;;;;;;;15.65;62.13;99879.78;4469390;32;34212;-66
2022/04/27 05:55:37;;;;;;;5.70;3.80;;;;;;;14.74;63.90;99879.69;4469543;32;34793;-65
2022/04/27 05:58:05;;;;;;;8.95;4.68;;;;;;;15.07;62.84;99874.72;4468786;32;33827;-67
2022/04/27 06:00:33;;;;;;;8.00;4.25;;;;;;;14.12;67.24;99880.66;4468169;32;32598;-65
2022/04/27 06:03:02;;;;;;;6.50;3.80;;;;;;;14.10;67.76;99875.50;4467876;32;34291;-64
2022/04/27 06:05:31;;;;;;;7.93;4.50;;;;;;;14.24;66.17;99878.50;4469161;32;34617;-64
2022/04/27 06:07:58;;;;;;;7.93;4.30;;;;;;;14.45;64.02;99882.09;4469244;32;33485;-65
2022/04/27 06:10:26;;;;;;;6.37;3.62;;;;;;;15.26;64.53;99885.09;4469428;32;34008;-67
2022/04/27 06:12:54;;;;;;;5.60;3.50;;;;;;;15.25;63.20;99891.66;4469155;32;34908;-64
2022/04/27 06:15:24;;;;;;;7.72;3.95;;;;;;;15.17;62.82;99890.31;4469273;32;34193;-63
2022/04/27 06:17:53;;;;;;;6.82;4.20;;;;;;;15.41;62.23;99898.72;4469026;32;34540;-64
2022/04/27 06:20:20;;;;;;;8.45;4.18;;;;;;;16.32;60.56;99901.37;4469136;32;33695;-65
2022/04/27 06:22:48;;;;;;;5.90;3.95;;;;;;;15.71;60.88;99905.22;4469386;32;35048;-69
2022/04/27 06:25:18;;;;;;;5.78;3.67;;;;;;;14.82;62.88;99893.91;4469120;32;34638;-72
2022/04/27 06:27:46;;;;;;;5.60;3.47;;;;;;;15.92;61.19;99900.53;4467384;32;32379;-64
2022/04/27 06:30:14;;;;;;;5.95;3.50;;;;;;;15.79;58.41;99905.50;4469399;32;34012;-63
2022/04/27 06:32:44;;;;;;;6.80;3.70;;;;;;;16.51;59.10;99907.84;4468456;32;34179;-71
2022/04/27 06:35:13;;;;;;;5.95;3.42;;;;;;;16.98;57.56;99908.34;4469300;32;33706;-69
2022/04/27 06:37:41;;;;;;;8.43;3.92;;;;;;;17.34;56.80;99908.00;4467749;32;33286;-66
2022/04/27 06:40:10;;;;;;;4.95;3.20;;;;;;;17.71;54.42;99911.97;4468884;32;33803;-66
2022/04/27 06:42:42;;;;;;;6.07;3.37;;;;;;;16.54;56.20;99914.66;4468517;32;34236;-70
2022/04/27 06:45:28;;;;;;;5.50;3.42;;;;;;;16.39;52.79;99910.94;4466779;32;33743;-67
2022/04/27 06:48:06;;;;;;;6.47;3.75;;;;;;;16.89;50.82;99915.53;4469154;32;31880;-69
2022/04/27 06:50:52;;;;;;;5.65;3.17;;;;;;;16.25;54.71;99918.13;4469127;32;34287;-66
2022/04/27 06:53:29;;;;;;;6.40;4.00;;;;;;;17.50;53.42;99925.13;4469057;32;34223;-65
2022/04/27 06:56:04;;;;;;;5.43;3.67;;;;;;;17.58;54.14;99918.97;4468522;32;33761;-65
2022/04/27 06:58:33;;;;;;;7.85;4.03;;;;;;;15.93;57.27;99929.50;4468805;32;34537;-66
2022/04/27 07:01:02;;;;;;;7.28;4.28;;;;;;;16.49;58.71;99929.22;4473475;32;34059;-66
2022/04/27 07:03:33;;;;;;;7.62;5.00;;;;;;;16.20;61.10;99932.66;4475589;32;33921;-67
2022/04/27 07:06:02;;;;;;;8.23;5.22;;;;;;;16.67;60.15;99929.62;4483887;32;34800;-68
2022/04/27 07:08:30;;;;;;;7.40;4.97;;;;;;;15.75;61.48;99934.50;4484705;32;34336;-69
2022/04/27 07:10:57;;;;;;;9.63;5.07;;;;;;;16.33;60.49;99939.44;4484413;32;33871;-64
2022/04/27 07:13:25;;;;;;;8.05;4.80;;;;;;;16.40;60.14;99939.13;4483914;32;35036;-66
2022/04/27 07:15:57;;;;;;;7.15;4.85;;;;;;;16.28;59.58;99933.97;4484278;32;34538;-65
2022/04/27 07:18:24;;;;;;;8.20;5.10;;;;;;;16.96;57.71;99941.50;4484381;32;33428;-66
2022/04/27 07:20:52;;;;;;;8.85;3.90;;;;;;;16.25;60.40;99944.69;4483766;32;34740;-67
2022/04/27 07:23:20;;;;;;;7.57;4.97;;;;;;;16.82;58.65;99937.78;4484131;32;34193;-67
2022/04/27 07:25:47;;;;;;;9.77;5.40;;;;;;;16.98;59.08;99933.81;4484518;32;33735;-67
2022/04/27 07:28:15;;;;;;;8.07;4.93;;;;;;;16.05;62.05;99943.69;4480763;32;33255;-68
2022/04/27 07:30:43;;;;;;;10.13;5.40;;;;;;;16.23;61.90;99947.72;4484255;32;33846;-65
2022/04/27 07:33:10;;;;;;;8.50;5.00;;;;;;;16.71;59.68;99939.75;4484561;32;34127;-67
2022/04/27 07:35:38;;;;;;;8.32;5.12;;;;;;;16.05;60.56;99938.22;4484356;32;34082;-69
2022/04/27 07:38:05;;;;;;;8.65;4.93;;;;;;;16.74;60.73;99947.41;4484254;32;33339;-68
2022/04/27 07:40:33;;;;;;;9.10;5.07;;;;;;;17.22;57.73;99949.53;4484786;32;33949;-67
2022/04/27 07:43:00;;;;;;;7.87;4.82;;;;;;;16.92;58.70;99964.31;4484365;32;33871;-71
2022/04/27 07:45:29;;;;;;;7.65;4.45;;;;;;;16.75;58.48;99946.28;4482145;32;33658;-73
2022/04/27 07:47:57;;;;;;;8.63;4.70;;;;;;;15.53;60.89;99951.22;4482957;32;34065;-70
2022/04/27 07:50:24;;;;;;;8.68;4.65;;;;;;;15.52;61.69;99954.22;4481567;32;33873;-67
2022/04/27 07:52:52;;;;;;;8.38;4.68;;;;;;;15.98;60.93;99954.94;4482454;32;35217;-67
2022/04/27 07:55:19;;;;;;;8.45;4.97;;;;;;;16.52;60.39;99953.31;4483834;32;34781;-66
2022/04/27 07:57:47;;;;;;;8.45;5.20;;;;;;;17.28;58.63;99961.25;4483554;32;33776;-68
2022/04/27 08:00:15;;;;;;;9.45;4.95;;;;;;;17.35;58.28;99961.75;4483832;32;34491;-67
2022/04/27 08:02:42;;;;;;;8.25;4.80;;;;;;;17.75;55.39;99962.44;4484984;32;34333;-67
2022/04/27 08:05:11;;;;;;;6.97;4.45;;;;;;;17.35;57.49;99969.97;4468280;32;34748;-69
2022/04/27 08:07:41;;;;;;;7.72;4.45;;;;;;;17.78;55.02;99965.41;4478682;32;33315;-67
2022/04/27 08:10:16;;;;;;;6.78;4.35;;;;;;;17.36;55.97;99960.63;4483937;32;34010;-77
2022/04/27 08:12:47;;;;;;;6.60;4.12;;;;;;;16.61;54.67;99964.50;4483979;32;35139;-67
2022/04/27 08:15:16;;;;;;;8.27;4.90;;;;;;;16.22;56.35;99959.78;4471058;32;34803;-65
2022/04/27 08:18:00;;;;;;;8.45;4.57;;;;;;;16.35;56.71;99964.63;4484864;32;33425;-70
2022/04/27 08:23:23;;;;;;;7.18;4.70;;;;;;;17.59;56.52;99970.81;4484829;32;34057;-69
2022/04/27 08:25:51;;;;;;;9.07;4.93;;;;;;;17.86;54.84;99974.97;4494690;31;34570;-63
2022/04/27 08:28:19;;;;;;;8.68;4.70;;;;;;;17.40;55.86;99981.69;4475027;32;33462;-67
2022/04/27 08:30:48;;;;;;;7.05;4.28;;;;;;;16.77;55.87;99981.62;4476681;32;34666;-66
2022/04/27 08:33:17;;;;;;;6.85;4.05;;;;;;;17.33;56.87;99981.22;4483791;32;34213;-70
2022/04/27 08:35:44;;;;;;;7.55;4.43;;;;;;;15.90;56.87;99982.88;4483525;32;33708;-68
2022/04/27 08:38:12;;;;;;;7.55;4.68;;;;;;;16.99;56.42;99981.22;4483627;32;33264;-68
2022/04/27 08:40:46;;;;;;;9.43;5.00;;;;;;;18.04;54.11;99989.88;4484202;32;34530;-68
2022/04/27 08:43:14;;;;;;;8.90;4.93;;;;;;;18.11;53.71;99989.50;4477313;32;33022;-67
2022/04/27 08:45:43;;;;;;;7.65;4.35;;;;;;;18.35;50.69;99986.72;4469969;32;34915;-67
2022/04/27 08:48:12;;;;;;;6.78;4.47;;;;;;;17.57;54.59;99983.19;4480931;32;33694;-71
2022/04/27 08:50:40;;;;;;;7.80;4.55;;;;;;;18.40;53.19;99986.66;4484459;32;33896;-64
2022/04/27 08:53:08;;;;;;;7.45;4.62;;;;;;;17.91;52.26;99983.16;4483903;32;34194;-71
2022/04/27 08:55:36;;;;;;;8.05;4.68;;;;;;;17.57;56.37;99977.72;4484194;32;34489;-67
2022/04/27 08:58:13;;;;;;;6.95;4.32;;;;;;;17.02;56.74;99969.72;4481433;32;33775;-68
2022/04/27 09:01:01;;;;;;;7.45;4.45;;;;;;;18.33;53.86;99976.03;4470281;32;34678;-73
2022/04/27 09:03:33;;;;;;;8.80;5.25;;;;;;;17.53;57.13;99979.41;4470087;32;35121;-74
2022/04/27 09:06:11;;;;;;;8.60;4.97;;;;;;;16.96;56.76;99974.41;4470955;32;34696;-67
2022/04/27 09:08:38;;;;;;;8.43;5.25;;;;;;;16.59;58.01;99975.72;4470698;32;32576;-67
2022/04/27 09:11:26;;;;;;;8.00;4.82;;;;;;;17.84;54.90;99982.69;4470646;32;33761;-69
2022/04/27 09:14:00;;;;;;;7.50;5.05;;;;;;;18.38;54.42;99972.38;4470356;32;34074;-69
2022/04/27 09:22:43;;;;;;;6.82;4.50;;;;;;;17.37;57.33;99979.53;4470795;32;33617;-68
2022/04/27 09:25:10;;;;;;;7.95;5.07;;;;;;;17.51;58.57;99982.41;4468982;32;34084;-67
2022/04/27 09:27:41;;;;;;;8.48;5.07;;;;;;;17.93;55.19;99978.19;4470159;32;33749;-70
2022/04/27 09:30:12;;;;;;;7.55;4.85;;;;;;;17.77;53.70;99980.22;4470453;32;33571;-66
2022/04/27 09:32:52;;;;;;;8.05;5.22;;;;;;;17.19;56.51;99981.09;4470608;32;33989;-68
2022/04/27 09:35:32;;;;;;;7.18;4.65;;;;;;;16.97;57.79;99981.50;4470482;32;34790;-68
2022/04/27 09:38:19;;;;;;;11.02;5.12;;;;;;;16.52;56.47;99982.59;4456528;32;34989;-68
2022/04/27 09:40:48;;;;;;;10.05;5.90;;;;;;;17.34;57.12;99971.06;4469109;32;34249;-67
2022/04/27 09:43:16;;;;;;;8.27;5.03;;;;;;;17.31;54.88;99977.94;4475873;32;33818;-68
2022/04/27 09:45:44;;;;;;;8.82;5.37;;;;;;;16.94;56.70;99973.88;4486099;32;35063;-66
2022/04/27 09:48:19;;;;;;;8.43;5.12;;;;;;;17.53;55.63;99976.66;4484289;32;34014;-68
2022/04/27 09:50:51;;;;;;;8.25;5.18;;;;;;;18.02;52.80;99983.84;4470384;32;33456;-68
2022/04/27 09:53:19;;;;;;;8.50;4.87;;;;;;;17.45;54.20;99972.63;4478117;32;34648;-68
2022/04/27 09:55:49;;;;;;;8.05;4.47;;;;;;;17.47;57.02;99975.88;4485783;32;34085;-67
2022/04/27 09:58:18;;;;;;;9.65;5.47;;;;;;;17.04;55.84;99970.25;4485925;32;33319;-68
2022/04/27 10:00:48;;;;;;;7.87;4.55;;;;;;;17.65;56.38;99976.28;4486090;31;33359;-66
2022/04/27 10:03:18;;;;;;;8.80;4.55;;;;;;;17.33;54.12;99980.41;4485530;32;34705;-64
2022/04/27 10:05:47;;;;;;;8.27;4.80;;;;;;;17.70;54.41;99976.22;4486053;32;34215;-66
2022/04/27 10:08:14;;;;;;;7.20;4.62;;;;;;;17.93;54.14;99980.94;4485933;32;34458;-67
2022/04/27 10:10:45;;;;;;;8.32;4.90;;;;;;;17.41;55.91;99986.09;4485046;32;34068;-67
2022/04/27 10:13:14;;;;;;;10.10;5.18;;;;;;;16.83;55.87;99983.28;4485579;32;34497;-66
2022/04/27 10:15:44;;;;;;;9.20;5.62;;;;;;;16.52;56.80;99982.59;4485687;32;34864;-67
2022/04/27 10:18:16;;;;;;;7.50;5.18;;;;;;;17.05;56.10;99991.06;4482533;32;33934;-68
2022/04/27 10:20:44;;;;;;;8.00;5.10;;;;;;;17.18;54.99;99984.09;4484762;32;34499;-68
2022/04/27 10:23:15;;;;;;;8.98;5.00;;;;;;;17.05;57.84;99987.50;4476114;32;33703;-67
2022/04/27 10:25:42;;;;;;;8.43;5.07;;;;;;;16.96;58.66;99996.34;4470205;32;35072;-66
2022/04/27 10:28:24;;;;;;;10.95;6.07;;;;;;;17.24;57.29;99990.38;4469710;32;34147;-69
2022/04/27 10:30:52;;;;;;;9.18;5.75;;;;;;;16.78;59.08;100000.53;4483932;32;33654;-68
2022/04/27 10:33:38;;;;;;;9.43;5.55;;;;;;;16.85;59.24;100000.25;4485481;32;34106;-69
2022/04/27 10:36:32;;;;;;;8.68;5.47;;;;;;;17.51;56.87;100003.56;4485893;32;34982;-69
2022/04/27 10:39:12;;;;;;;8.45;5.45;;;;;;;16.65;59.28;100006.66;4484299;32;34660;-69
2022/04/27 10:41:40;;;;;;;10.25;5.60;;;;;;;16.68;59.81;100003.34;4484180;32;34293;-69
2022/04/27 10:44:08;;;;;;;10.93;6.37;;;;;;;16.51;60.22;100002.87;4485752;32;35033;-67
2022/04/27 10:46:36;;;;;;;9.27;5.68;;;;;;;16.20;62.41;100003.84;4485658;32;34261;-67
2022/04/27 10:49:30;;;;;;;10.63;6.60;;;;;;;16.25;61.95;100015.88;4486048;32;34712;-69
2022/04/27 10:52:02;;;;;;;11.07;6.50;;;;;;;15.84;62.99;100010.53;4483910;31;33401;-67
2022/04/27 10:54:37;;;;;;;11.45;6.75;;;;;;;15.67;63.25;100006.16;4485559;32;34871;-69
2022/04/27 10:57:14;;;;;;;11.05;6.93;;;;;;;15.79;63.66;100001.25;4484595;32;33936;-66
2022/04/27 10:59:51;;;;;;;10.13;6.78;;;;;;;15.88;63.48;100004.22;4483287;32;34157;-67
2022/04/27 11:02:34;;;;;;;11.45;6.65;;;;;;;15.59;64.07;100012.19;4479115;32;33006;-67
2022/04/27 11:05:04;;;;;;;9.77;6.15;;;;;;;15.87;63.05;100005.31;4484073;32;33873;-67
2022/04/27 11:07:34;;;;;;;10.93;6.80;;;;;;;15.94;63.35;100002.31;4484563;32;35102;-68
2022/04/27 11:10:20;;;;;;;10.82;6.93;;;;;;;15.73;63.88;100001.53;4483862;32;35006;-67
2022/04/27 11:12:50;;;;;;;10.10;6.60;;;;;;;16.16;62.00;100010.16;4483586;32;33311;-67
2022/04/27 11:15:25;;;;;;;10.85;6.75;;;;;;;15.29;65.63;100010.28;4485486;32;33492;-66
2022/04/27 11:18:01;;;;;;;12.02;7.10;;;;;;;14.97;65.24;100008.66;4484256;32;35138;-67
2022/04/27 11:20:38;;;;;;;10.60;6.43;;;;;;;15.34;64.80;100015.75;4483925;32;33929;-67
2022/04/27 11:23:08;;;;;;;11.20;6.05;;;;;;;16.03;62.49;100006.09;4483954;32;33513;-67
2022/04/27 11:25:37;;;;;;;10.02;6.15;;;;;;;16.28;61.84;100012.56;4485434;32;34122;-69
2022/04/27 11:28:11;;;;;;;9.38;5.75;;;;;;;16.26;62.15;100012.84;4485435;32;35027;-70
2022/04/27 11:30:39;;;;;;;11.07;6.22;;;;;;;15.55;64.69;100020.13;4482937;32;34059;-68
2022/04/27 11:33:07;;;;;;;10.20;5.57;;;;;;;15.68;63.44;100012.44;4485543;32;33563;-67
2022/04/27 11:35:46;;;;;;;8.85;6.03;;;;;;;15.21;65.20;100006.19;4485337;32;34655;-70
2022/04/27 11:38:18;;;;;;;8.90;5.53;;;;;;;15.79;62.91;100014.09;4484121;32;34274;-68
2022/04/27 11:40:48;;;;;;;9.90;5.65;;;;;;;15.53;64.07;100024.25;4485784;32;34637;-67
2022/04/27 11:43:24;;;;;;;9.35;6.00;;;;;;;15.55;64.10;100019.28;4484052;32;33512;-71
2022/04/27 11:45:51;;;;;;;12.40;6.85;;;;;;;15.61;64.02;100020.91;4478583;32;34679;-70
2022/04/27 11:48:21;;;;;;;11.70;6.75;;;;;;;15.35;64.89;100020.13;4468330;32;33339;-66
2022/04/27 11:50:50;;;;;;;9.57;5.95;;;;;;;15.57;63.69;100028.88;4477822;32;34747;-70
2022/04/27 11:53:17;;;;;;;10.23;5.90;;;;;;;14.84;66.67;100023.66;4478518;32;33586;-67
2022/04/27 11:55:49;;;;;;;10.50;6.30;;;;;;;14.79;66.73;100017.34;4483680;32;34532;-66
2022/04/27 11:58:22;;;;;;;12.07;6.80;;;;;;;15.03;65.46;100023.97;4483811;32;34097;-66
2022/04/27 12:00:56;;;;;;;10.43;6.30;;;;;;;15.23;64.11;100027.81;4483155;32;34727;-66
2022/04/27 12:03:26;;;;;;;10.50;6.82;;;;;;;15.20;64.15;100022.88;4482807;32;34253;-66
2022/04/27 12:05:54;;;;;;;10.93;6.90;;;;;;;14.55;67.03;100021.38;4484049;32;34053;-67
2022/04/27 12:08:25;;;;;;;13.32;7.22;;;;;;;14.51;66.77;100022.16;4483419;32;34288;-67